createdAt,value
2018-08-09T00:01:13.041Z,29.30
2018-08-09T00:03:43.468Z,29.30
2018-08-09T00:06:13.809Z,29.30
2018-08-09T00:08:47.615Z,29.30
2018-08-09T00:11:17.876Z,29.30
2018-08-09T00:13:47.303Z,29.30
2018-08-09T00:16:17.838Z,29.30
2018-08-09T00:18:47.160Z,29.30
2018-08-09T00:21:16.798Z,29.20
2018-08-09T00:23:46.434Z,29.20
2018-08-09T00:26:17.169Z,29.20
2018-08-09T00:28:46.646Z,29.10
2018-08-09T00:31:16.292Z,29.10
2018-08-09T00:33:45.842Z,29.10
2018-08-09T00:36:15.286Z,29.10
2018-08-09T00:38:44.893Z,29.00
2018-08-09T00:41:14.463Z,29.10
2018-08-09T00:43:44.109Z,29.00
2018-08-09T00:46:13.770Z,29.00
2018-08-09T00:48:43.075Z,29.00
2018-08-09T00:51:12.393Z,28.90
2018-08-09T00:53:43.028Z,28.90
2018-08-09T00:56:12.737Z,28.90
2018-08-09T00:58:42.269Z,28.90
2018-08-09T01:01:11.743Z,28.90
2018-08-09T01:03:41.177Z,28.90
2018-08-09T01:06:10.976Z,28.90
2018-08-09T01:08:44.573Z,28.90
2018-08-09T01:11:13.928Z,28.90
2018-08-09T01:13:43.280Z,28.90
2018-08-09T01:16:12.770Z,28.90
2018-08-09T01:18:42.128Z,28.80
2018-08-09T01:21:12.294Z,28.80
2018-08-09T01:23:41.832Z,28.80
2018-08-09T01:26:11.335Z,28.70
2018-08-09T01:28:41.897Z,28.70
2018-08-09T01:31:12.542Z,28.70
2018-08-09T01:33:41.768Z,28.70
2018-08-09T01:36:11.142Z,28.70
2018-08-09T01:38:40.885Z,28.70
2018-08-09T01:41:10.275Z,28.70
2018-08-09T01:43:50.664Z,28.70
2018-08-09T01:46:20.161Z,28.70
2018-08-09T01:48:50.455Z,28.70
2018-08-09T01:51:20.710Z,28.70
2018-08-09T01:53:51.267Z,28.60
2018-08-09T01:56:20.911Z,28.60
2018-08-09T01:59:03.897Z,28.60
2018-08-09T02:01:33.919Z,28.60
2018-08-09T02:04:03.341Z,28.50
2018-08-09T02:06:32.680Z,28.50
2018-08-09T02:09:07.067Z,28.50
2018-08-09T02:11:36.449Z,28.50
2018-08-09T02:14:06.420Z,28.50
2018-08-09T02:16:35.879Z,28.50
2018-08-09T02:19:05.439Z,28.40
2018-08-09T02:21:34.933Z,28.40
2018-08-09T02:24:04.896Z,28.40
2018-08-09T02:26:33.954Z,28.40
2018-08-09T02:29:04.575Z,28.40
2018-08-09T02:31:34.270Z,28.30
2018-08-09T02:34:04.393Z,28.30
2018-08-09T02:36:33.604Z,28.30
2018-08-09T02:39:02.998Z,28.30
2018-08-09T02:41:32.195Z,28.30
2018-08-09T02:44:01.570Z,28.30
2018-08-09T02:46:33.806Z,28.20
2018-08-09T02:49:05.065Z,28.20
2018-08-09T02:51:34.123Z,28.20
2018-08-09T02:54:03.537Z,28.20
2018-08-09T02:56:33.688Z,28.20
2018-08-09T02:59:03.073Z,28.20
2018-08-09T03:01:32.753Z,28.20
2018-08-09T03:04:02.026Z,28.20
2018-08-09T03:06:31.390Z,28.10
2018-08-09T03:09:00.761Z,28.10
2018-08-09T03:11:30.262Z,28.10
2018-08-09T03:13:59.575Z,28.00
2018-08-09T03:16:29.122Z,27.90
2018-08-09T03:19:05.072Z,27.90
2018-08-09T03:21:34.566Z,27.90
2018-08-09T03:24:07.655Z,27.90
2018-08-09T03:26:40.293Z,27.90
2018-08-09T03:29:09.292Z,27.90
2018-08-09T03:31:38.358Z,27.90
2018-08-09T03:34:07.781Z,27.90
2018-08-09T03:36:39.433Z,27.90
2018-08-09T03:39:10.284Z,27.90
2018-08-09T03:41:39.993Z,27.90
2018-08-09T03:44:09.453Z,27.90
2018-08-09T03:46:38.956Z,27.90
2018-08-09T03:49:08.262Z,27.90
2018-08-09T03:51:37.567Z,27.90
2018-08-09T03:54:08.160Z,27.80
2018-08-09T03:56:38.181Z,27.80
2018-08-09T03:59:08.496Z,27.80
2018-08-09T04:01:38.030Z,27.80
2018-08-09T04:04:08.488Z,27.80
2018-08-09T04:06:38.841Z,27.80
2018-08-09T04:09:10.840Z,27.80
2018-08-09T04:11:41.383Z,27.80
2018-08-09T04:14:11.138Z,27.80
2018-08-09T04:16:40.485Z,27.80
2018-08-09T04:19:09.958Z,27.80
2018-08-09T04:21:39.398Z,27.80
2018-08-09T04:24:10.124Z,27.70
2018-08-09T04:26:39.535Z,27.70
2018-08-09T04:29:09.246Z,27.60
2018-08-09T04:31:40.524Z,27.70
2018-08-09T04:34:10.678Z,27.70
2018-08-09T04:36:40.213Z,27.70
2018-08-09T04:39:10.233Z,27.70
2018-08-09T04:41:39.722Z,27.70
2018-08-09T04:44:09.671Z,27.70
2018-08-09T04:46:38.949Z,27.70
2018-08-09T04:49:08.433Z,27.70
2018-08-09T04:51:37.909Z,27.70
2018-08-09T04:54:07.465Z,27.70
2018-08-09T04:56:36.853Z,27.70
2018-08-09T04:59:06.164Z,27.70
2018-08-09T05:01:36.175Z,27.80
2018-08-09T05:04:05.703Z,27.70
2018-08-09T05:06:34.830Z,27.70
2018-08-09T05:09:07.771Z,27.70
2018-08-09T05:11:37.470Z,27.70
2018-08-09T05:14:07.216Z,27.70
2018-08-09T05:16:36.670Z,27.70
2018-08-09T05:19:06.724Z,27.70
2018-08-09T05:21:36.669Z,27.70
2018-08-09T05:24:06.556Z,27.70
2018-08-09T05:26:36.260Z,27.70
2018-08-09T05:29:05.774Z,27.70
2018-08-09T05:31:35.329Z,27.70
2018-08-09T05:34:04.791Z,27.70
2018-08-09T05:36:34.000Z,27.70
2018-08-09T05:39:04.220Z,27.80
2018-08-09T05:41:33.597Z,27.80
2018-08-09T05:44:03.973Z,27.80
2018-08-09T05:46:33.402Z,27.80
2018-08-09T05:49:02.944Z,27.80
2018-08-09T05:51:32.399Z,27.80
2018-08-09T05:54:01.820Z,27.80
2018-08-09T05:56:31.569Z,27.80
2018-08-09T05:59:00.951Z,27.80
2018-08-09T06:01:30.320Z,27.90
2018-08-09T06:03:59.754Z,27.90
2018-08-09T06:06:29.237Z,27.90
2018-08-09T06:08:59.247Z,27.90
2018-08-09T06:11:28.876Z,27.90
2018-08-09T06:13:58.245Z,27.90
2018-08-09T06:16:27.851Z,27.90
2018-08-09T06:18:57.143Z,27.90
2018-08-09T06:21:26.530Z,28.00
2018-08-09T06:23:56.024Z,28.00
2018-08-09T06:26:25.747Z,28.00
2018-08-09T06:29:03.362Z,28.00
2018-08-09T06:31:32.849Z,28.00
2018-08-09T06:34:02.818Z,28.00
2018-08-09T06:36:32.344Z,28.00
2018-08-09T06:39:01.589Z,28.00
2018-08-09T06:41:31.171Z,28.10
2018-08-09T06:44:00.596Z,28.10
2018-08-09T06:46:30.209Z,28.00
2018-08-09T06:49:00.126Z,28.00
2018-08-09T06:51:29.733Z,28.00
2018-08-09T06:53:59.047Z,28.00
2018-08-09T06:56:29.008Z,28.00
2018-08-09T06:58:58.454Z,28.00
2018-08-09T07:01:27.950Z,28.00
2018-08-09T07:03:58.358Z,28.00
2018-08-09T07:06:27.796Z,28.00
2018-08-09T07:08:57.732Z,28.10
2018-08-09T07:11:27.914Z,28.10
2018-08-09T07:13:57.438Z,28.10
2018-08-09T07:16:27.577Z,28.10
2018-08-09T07:18:57.013Z,28.10
2018-08-09T07:21:26.417Z,28.10
2018-08-09T07:23:55.947Z,28.10
2018-08-09T07:26:25.818Z,28.10
2018-08-09T07:28:57.456Z,28.10
2018-08-09T07:31:33.167Z,28.10
2018-08-09T07:34:02.511Z,28.10
2018-08-09T07:36:35.724Z,28.10
2018-08-09T07:39:07.525Z,28.10
2018-08-09T07:41:38.494Z,28.10
2018-08-09T07:44:08.038Z,28.10
2018-08-09T07:46:37.511Z,28.10
2018-08-09T07:49:06.792Z,28.20
2018-08-09T07:51:36.290Z,28.20
2018-08-09T07:54:05.990Z,28.20
2018-08-09T07:56:35.614Z,28.30
2018-08-09T07:59:05.066Z,28.40
2018-08-09T08:01:34.804Z,28.40
2018-08-09T08:04:04.317Z,28.50
2018-08-09T08:06:33.916Z,28.50
2018-08-09T08:09:03.319Z,28.50
2018-08-09T08:11:32.790Z,28.60
2018-08-09T08:14:02.046Z,28.60
2018-08-09T08:16:32.372Z,28.60
2018-08-09T08:19:03.118Z,28.70
2018-08-09T08:21:32.369Z,28.80
2018-08-09T08:24:02.505Z,28.80
2018-08-09T08:26:31.740Z,28.90
2018-08-09T08:29:00.980Z,28.90
2018-08-09T08:31:30.296Z,28.90
2018-08-09T08:33:59.726Z,28.90
2018-08-09T08:36:30.802Z,28.90
2018-08-09T08:39:10.275Z,29.00
2018-08-09T08:41:40.293Z,29.00
2018-08-09T08:44:09.604Z,29.00
2018-08-09T08:46:38.784Z,29.00
2018-08-09T08:49:08.017Z,29.00
2018-08-09T08:51:37.942Z,29.10
2018-08-09T08:54:08.342Z,29.10
2018-08-09T08:56:40.051Z,29.20
2018-08-09T08:59:12.720Z,29.20
2018-08-09T09:01:47.433Z,29.20
2018-08-09T09:04:19.250Z,29.20
2018-08-09T09:06:50.768Z,29.30
2018-08-09T09:09:20.294Z,29.30
2018-08-09T09:11:56.502Z,29.30
2018-08-09T09:14:26.017Z,29.30
2018-08-09T09:16:55.622Z,29.30
2018-08-09T09:19:25.079Z,29.30
2018-08-09T09:21:54.868Z,29.40
2018-08-09T09:24:24.396Z,29.40
2018-08-09T09:26:54.232Z,29.40
2018-08-09T09:29:23.843Z,29.40
2018-08-09T09:31:53.341Z,29.40
2018-08-09T09:34:22.776Z,29.40
2018-08-09T09:36:53.166Z,29.40
2018-08-09T09:39:22.888Z,29.50
2018-08-09T09:41:52.521Z,29.50
2018-08-09T09:44:22.015Z,29.50
2018-08-09T09:46:52.635Z,29.50
2018-08-09T09:49:22.665Z,29.50
2018-08-09T09:51:54.776Z,29.60
2018-08-09T09:57:01.325Z,29.60
2018-08-09T09:59:30.864Z,29.50
2018-08-09T10:02:00.290Z,29.60
2018-08-09T10:04:35.442Z,29.60
2018-08-09T10:07:05.288Z,29.60
2018-08-09T10:09:34.924Z,29.60
2018-08-09T10:12:04.904Z,29.70
2018-08-09T10:14:34.597Z,29.70
2018-08-09T10:17:09.132Z,29.80
2018-08-09T10:19:38.373Z,29.80
2018-08-09T10:22:08.413Z,29.80
2018-08-09T10:24:38.350Z,29.80
2018-08-09T10:27:08.639Z,29.80
2018-08-09T10:29:38.808Z,29.90
2018-08-09T10:32:08.277Z,29.90
2018-08-09T10:34:38.071Z,29.90
2018-08-09T10:37:07.582Z,29.90
2018-08-09T10:39:37.698Z,30.00
2018-08-09T10:42:07.014Z,30.00
2018-08-09T10:44:36.437Z,30.00
2018-08-09T10:47:06.294Z,30.00
2018-08-09T10:49:35.846Z,30.10
2018-08-09T10:52:06.183Z,30.10
2018-08-09T10:54:35.439Z,30.10
2018-08-09T10:57:05.215Z,30.20
2018-08-09T10:59:35.105Z,30.20
2018-08-09T11:02:04.845Z,30.20
2018-08-09T11:04:35.006Z,30.20
2018-08-09T11:07:04.357Z,30.20
2018-08-09T11:12:14.188Z,30.20
2018-08-09T11:14:43.525Z,30.20
2018-08-09T11:17:13.364Z,30.20
2018-08-09T11:19:42.863Z,30.30
2018-08-09T11:22:12.443Z,30.30
2018-08-09T11:24:41.929Z,30.40
2018-08-09T11:27:11.224Z,30.40
2018-08-09T11:29:40.535Z,30.40
2018-08-09T11:32:10.258Z,30.50
2018-08-09T11:34:39.977Z,30.50
2018-08-09T11:37:10.304Z,30.40
2018-08-09T11:39:40.621Z,30.40
2018-08-09T11:42:10.210Z,30.50
2018-08-09T11:44:40.665Z,30.50
2018-08-09T11:47:11.313Z,30.50
2018-08-09T11:49:40.664Z,30.50
2018-08-09T11:52:10.287Z,30.50
2018-08-09T11:54:40.161Z,30.50
2018-08-09T11:57:09.715Z,30.50
2018-08-09T11:59:39.893Z,30.60
2018-08-09T12:02:09.535Z,30.60
2018-08-09T12:04:38.832Z,30.70
2018-08-09T12:07:08.791Z,30.70
2018-08-09T12:09:38.273Z,30.80
2018-08-09T12:12:07.745Z,30.80
2018-08-09T12:14:37.245Z,30.80
2018-08-09T12:17:07.372Z,30.80
2018-08-09T12:19:36.447Z,30.90
2018-08-09T12:22:05.918Z,30.90
2018-08-09T12:24:35.079Z,30.90
2018-08-09T12:27:04.573Z,30.90
2018-08-09T12:29:34.487Z,31.00
2018-08-09T12:32:06.852Z,30.90
2018-08-09T12:34:36.123Z,31.00
2018-08-09T12:37:05.250Z,30.90
2018-08-09T12:39:35.710Z,30.90
2018-08-09T12:42:05.016Z,30.90
2018-08-09T12:44:34.824Z,30.90
2018-08-09T12:47:05.102Z,30.90
2018-08-09T12:49:34.684Z,31.00
2018-08-09T12:52:05.040Z,31.00
2018-08-09T12:54:35.278Z,31.00
2018-08-09T12:57:05.039Z,30.90
2018-08-09T12:59:34.633Z,31.00
2018-08-09T13:02:03.795Z,31.00
2018-08-09T13:04:33.056Z,31.10
2018-08-09T13:07:03.895Z,31.10
2018-08-09T13:09:33.206Z,31.20
2018-08-09T13:12:02.785Z,31.20
2018-08-09T13:14:32.057Z,31.20
2018-08-09T13:17:02.527Z,31.20
2018-08-09T13:19:32.004Z,31.20
2018-08-09T13:22:01.617Z,31.20
2018-08-09T13:24:31.862Z,31.30
2018-08-09T13:27:01.242Z,31.40
2018-08-09T13:29:30.668Z,31.60
2018-08-09T13:32:00.435Z,31.60
2018-08-09T13:34:30.110Z,31.60
2018-08-09T13:36:59.566Z,31.60
2018-08-09T13:39:35.147Z,31.60
2018-08-09T13:42:05.575Z,31.50
2018-08-09T13:44:34.953Z,31.50
2018-08-09T13:47:09.877Z,31.60
2018-08-09T13:49:39.443Z,31.70
2018-08-09T13:52:08.890Z,31.90
2018-08-09T13:54:38.281Z,32.20
2018-08-09T13:57:08.917Z,32.40
2018-08-09T13:59:38.885Z,32.60
2018-08-09T14:02:12.826Z,32.80
2018-08-09T14:04:43.450Z,33.20
2018-08-09T14:07:16.285Z,33.40
2018-08-09T14:09:48.799Z,33.40
2018-08-09T14:12:19.449Z,33.30
2018-08-09T14:14:49.203Z,33.20
2018-08-09T14:17:19.146Z,33.00
2018-08-09T14:19:48.724Z,32.90
2018-08-09T14:22:19.477Z,33.00
2018-08-09T14:24:52.351Z,32.90
2018-08-09T14:27:21.434Z,32.80
2018-08-09T14:29:51.751Z,32.70
2018-08-09T14:32:25.050Z,32.90
2018-08-09T14:34:55.082Z,33.00
2018-08-09T14:37:25.195Z,32.80
2018-08-09T14:39:54.672Z,32.70
2018-08-09T14:42:24.241Z,32.60
2018-08-09T14:44:54.092Z,32.80
2018-08-09T14:47:23.749Z,33.00
2018-08-09T14:49:53.471Z,33.60
2018-08-09T14:52:23.679Z,33.60
2018-08-09T14:54:53.468Z,33.90
2018-08-09T14:57:38.464Z,34.00
2018-08-09T15:00:13.645Z,34.30
2018-08-09T15:02:43.097Z,34.50
2018-08-09T15:05:25.986Z,34.60
2018-08-09T15:08:01.888Z,34.80
2018-08-09T15:10:32.582Z,34.70
2018-08-09T15:13:04.915Z,34.80
2018-08-09T15:15:41.893Z,34.80
2018-08-09T15:18:11.332Z,34.90
2018-08-09T15:20:41.853Z,34.80
2018-08-09T15:23:11.288Z,34.70
2018-08-09T15:25:41.510Z,34.70
2018-08-09T15:28:10.999Z,34.70
2018-08-09T15:30:40.567Z,34.80
2018-08-09T15:33:09.963Z,34.70
2018-08-09T15:35:40.170Z,34.60
2018-08-09T15:38:09.444Z,34.40
2018-08-09T15:40:39.318Z,34.10
2018-08-09T15:43:09.258Z,32.80
2018-08-09T15:45:38.834Z,31.60
2018-08-09T15:48:08.256Z,30.80
2018-08-09T15:50:38.065Z,30.40
2018-08-09T15:53:07.372Z,30.10
2018-08-09T15:55:37.180Z,30.00
2018-08-09T15:58:06.943Z,29.70
2018-08-09T16:00:36.549Z,29.70
2018-08-09T16:03:07.554Z,29.60
2018-08-09T16:05:38.963Z,29.50
2018-08-09T16:08:10.641Z,29.30
2018-08-09T16:10:41.971Z,29.40
2018-08-09T16:13:13.677Z,29.20
2018-08-09T16:15:45.047Z,29.20
2018-08-09T16:18:16.245Z,29.30
2018-08-09T16:20:47.358Z,29.30
2018-08-09T16:23:19.545Z,29.20
2018-08-09T16:25:51.580Z,29.10
2018-08-09T16:28:24.990Z,29.00
2018-08-09T16:30:57.467Z,28.90
2018-08-09T16:33:30.543Z,28.80
2018-08-09T16:36:06.240Z,28.90
2018-08-09T16:38:37.780Z,29.20
2018-08-09T16:41:10.100Z,29.50
2018-08-09T16:43:42.011Z,29.80
2018-08-09T16:46:13.853Z,30.00
2018-08-09T16:48:54.083Z,29.80
2018-08-09T16:51:26.783Z,29.80
2018-08-09T16:53:58.600Z,29.90
2018-08-09T16:56:30.511Z,30.10
2018-08-09T16:59:02.368Z,30.30
2018-08-09T17:01:33.981Z,30.10
2018-08-09T17:04:04.971Z,30.20
2018-08-09T17:06:35.974Z,30.10
2018-08-09T17:09:15.325Z,30.10
2018-08-09T17:11:47.547Z,30.20
2018-08-09T17:14:18.975Z,30.20
2018-08-09T17:16:50.559Z,30.50
2018-08-09T17:19:21.634Z,30.80
2018-08-09T17:22:11.276Z,31.30
2018-08-09T17:24:47.301Z,31.90
2018-08-09T17:27:23.486Z,32.20
2018-08-09T17:30:07.960Z,31.70
2018-08-09T17:32:50.082Z,31.30
2018-08-09T17:35:24.595Z,31.00
2018-08-09T17:37:56.050Z,31.00
2018-08-09T17:40:31.785Z,30.90
2018-08-09T17:43:02.737Z,30.70
2018-08-09T17:45:34.351Z,31.00
2018-08-09T17:48:06.495Z,30.90
2018-08-09T17:50:40.204Z,30.70
2018-08-09T17:53:12.543Z,30.60
2018-08-09T17:55:42.875Z,30.40
2018-08-09T17:58:13.341Z,30.40
2018-08-09T18:00:44.837Z,30.40
2018-08-09T18:03:16.869Z,30.30
2018-08-09T18:05:48.653Z,30.00
2018-08-09T18:08:19.395Z,29.50
2018-08-09T18:10:50.082Z,29.00
2018-08-09T18:13:20.881Z,28.80
2018-08-09T18:15:51.195Z,28.50
2018-08-09T18:18:27.562Z,28.20
2018-08-09T18:20:58.024Z,27.80
2018-08-09T18:23:31.751Z,27.60
2018-08-09T18:26:02.838Z,27.40
2018-08-09T18:28:33.822Z,27.20
2018-08-09T18:31:06.008Z,27.00
2018-08-09T18:33:36.743Z,26.90
2018-08-09T18:36:07.984Z,26.80
2018-08-09T18:38:38.883Z,26.70
2018-08-09T18:41:10.665Z,26.60
2018-08-09T18:43:42.118Z,26.60
2018-08-09T18:46:13.308Z,26.60
2018-08-09T18:48:44.593Z,26.60
2018-08-09T18:51:14.609Z,26.50
2018-08-09T18:53:44.631Z,26.60
2018-08-09T18:56:14.824Z,26.70
2018-08-09T18:58:45.913Z,26.80
2018-08-09T19:01:18.114Z,26.70
2018-08-09T19:03:48.896Z,26.80
2018-08-09T19:06:26.648Z,26.90
2018-08-09T19:08:58.449Z,26.80
2018-08-09T19:11:29.683Z,26.70
2018-08-09T19:14:01.454Z,26.70
2018-08-09T19:16:32.360Z,26.70
2018-08-09T19:19:07.400Z,26.70
2018-08-09T19:21:38.195Z,26.60
2018-08-09T19:24:09.521Z,26.60
2018-08-09T19:26:41.172Z,26.50
2018-08-09T19:29:14.565Z,26.30
2018-08-09T19:31:44.743Z,26.10
2018-08-09T19:34:15.238Z,26.10
2018-08-09T19:36:46.493Z,26.10
2018-08-09T19:39:17.925Z,26.10
2018-08-09T19:41:48.749Z,26.00
2018-08-09T19:44:20.356Z,25.90
2018-08-09T19:46:51.362Z,26.00
2018-08-09T19:49:22.044Z,26.00
2018-08-09T19:51:53.197Z,26.10
2018-08-09T19:54:24.292Z,26.20
2018-08-09T19:56:54.350Z,26.10
2018-08-09T19:59:23.986Z,26.00
2018-08-09T20:01:54.560Z,25.90
2018-08-09T20:04:25.291Z,25.90
2018-08-09T20:06:54.755Z,25.90
2018-08-09T20:09:28.419Z,25.90
2018-08-09T20:11:59.439Z,25.80
2018-08-09T20:14:33.716Z,25.70
2018-08-09T20:17:06.271Z,25.70
2018-08-09T20:19:37.344Z,25.60
2018-08-09T20:22:12.377Z,25.60
2018-08-09T20:24:41.844Z,25.70
2018-08-09T20:27:11.306Z,25.70
2018-08-09T20:29:41.289Z,25.60
2018-08-09T20:32:12.800Z,25.50
2018-08-09T20:34:42.222Z,25.40
2018-08-09T20:37:11.814Z,25.40
2018-08-09T20:39:41.349Z,25.50
2018-08-09T20:42:11.280Z,25.30
2018-08-09T20:44:40.950Z,25.40
2018-08-09T20:47:10.411Z,25.20
2018-08-09T20:49:39.941Z,25.10
2018-08-09T20:52:09.330Z,25.00
2018-08-09T20:54:38.644Z,24.90
2018-08-09T20:57:07.919Z,24.80
2018-08-09T20:59:37.612Z,24.80
2018-08-09T21:02:07.086Z,24.80
2018-08-09T21:04:38.096Z,24.80
2018-08-09T21:07:07.746Z,24.90
2018-08-09T21:09:37.214Z,25.10
2018-08-09T21:12:06.672Z,25.20
2018-08-09T21:14:36.132Z,25.00
2018-08-09T21:17:05.809Z,24.80
2018-08-09T21:19:35.183Z,24.70
2018-08-09T21:22:04.732Z,24.60
2018-08-09T21:24:33.845Z,24.70
2018-08-09T21:27:03.037Z,24.70
2018-08-09T21:29:32.268Z,24.50
2018-08-09T21:32:01.836Z,24.50
2018-08-09T21:34:31.383Z,24.50
2018-08-09T21:37:00.984Z,24.40
2018-08-09T21:39:30.493Z,24.30
2018-08-09T21:42:01.774Z,24.30
2018-08-09T21:44:31.285Z,24.30
2018-08-09T21:47:00.874Z,24.30
2018-08-09T21:49:30.949Z,24.40
2018-08-09T21:52:00.446Z,24.30
2018-08-09T21:54:29.797Z,24.40
2018-08-09T21:56:59.463Z,24.50
2018-08-09T21:59:29.036Z,24.70
2018-08-09T22:01:59.397Z,24.70
2018-08-09T22:04:29.043Z,24.80
2018-08-09T22:07:03.515Z,24.90
2018-08-09T22:09:38.047Z,24.90
2018-08-09T22:12:13.079Z,24.80
2018-08-09T22:14:47.651Z,24.80
2018-08-09T22:17:21.995Z,24.80
2018-08-09T22:20:54.881Z,25.00
2018-08-09T22:23:24.424Z,25.00
2018-08-09T22:25:53.966Z,25.30
2018-08-09T22:28:23.354Z,25.20
2018-08-09T22:30:53.930Z,25.10
2018-08-09T22:33:25.399Z,24.90
2018-08-09T22:35:55.722Z,24.70
2018-08-09T22:38:25.019Z,24.70
2018-08-09T22:44:02.185Z,24.60
2018-08-09T22:46:32.387Z,24.80
2018-08-09T22:49:01.876Z,24.80
2018-08-09T22:51:32.297Z,24.50
2018-08-09T22:54:01.731Z,24.30
2018-08-09T22:56:31.124Z,24.20
2018-08-09T22:59:00.478Z,24.00
2018-08-09T23:01:29.782Z,24.00
2018-08-09T23:03:59.217Z,24.00
2018-08-09T23:06:30.862Z,23.90
2018-08-09T23:09:00.469Z,23.90
2018-08-09T23:12:02.257Z,23.90
2018-08-09T23:14:31.529Z,23.80
2018-08-09T23:17:01.283Z,23.80
2018-08-09T23:19:30.672Z,23.70
2018-08-09T23:22:00.166Z,23.60
2018-08-09T23:24:29.710Z,23.60
2018-08-09T23:27:00.512Z,23.60
2018-08-09T23:29:29.889Z,23.60
2018-08-09T23:32:00.737Z,23.50
2018-08-09T23:34:30.165Z,23.50
2018-08-09T23:36:59.534Z,23.50
2018-08-09T23:39:28.971Z,23.50
2018-08-09T23:41:58.360Z,23.50
2018-08-09T23:44:30.202Z,23.50
2018-08-09T23:47:06.032Z,23.50
2018-08-09T23:49:35.922Z,23.40
2018-08-09T23:52:06.833Z,23.40
2018-08-09T23:54:36.393Z,23.40
2018-08-09T23:57:05.805Z,23.40
2018-08-09T23:59:35.230Z,23.50
